createdAt,value
2022-12-14T00:01:48.815Z,6.55
2022-12-14T00:04:18.171Z,7.07
2022-12-14T00:06:46.734Z,7.47
2022-12-14T00:09:16.422Z,7.50
2022-12-14T00:11:44.982Z,7.05
2022-12-14T00:14:13.195Z,7.38
2022-12-14T00:16:41.693Z,6.65
2022-12-14T00:19:12.802Z,6.70
2022-12-14T00:21:41.518Z,7.38
2022-12-14T00:24:10.484Z,8.10
2022-12-14T00:29:08.591Z,6.97
2022-12-14T00:31:37.227Z,7.03
2022-12-14T00:34:05.580Z,6.37
2022-12-14T00:36:36.456Z,5.78
2022-12-14T00:39:05.629Z,5.25
2022-12-14T00:41:34.167Z,6.45
2022-12-14T00:44:04.049Z,5.75
2022-12-14T00:46:32.654Z,5.30
2022-12-14T00:49:00.937Z,6.45
2022-12-14T00:51:29.609Z,7.18
2022-12-14T00:53:57.820Z,5.10
2022-12-14T00:56:26.525Z,5.60
2022-12-14T00:58:55.045Z,5.13
2022-12-14T01:01:25.017Z,4.45
2022-12-14T01:04:13.689Z,4.22
2022-12-14T01:06:42.444Z,4.80
2022-12-14T01:09:11.184Z,4.00
2022-12-14T01:11:42.034Z,6.00
2022-12-14T01:14:10.491Z,4.68
2022-12-14T01:16:40.985Z,4.97
2022-12-14T01:19:09.303Z,4.82
2022-12-14T01:21:37.800Z,5.38
2022-12-14T01:24:07.221Z,5.78
2022-12-14T01:26:39.743Z,5.28
2022-12-14T01:29:09.217Z,5.38
2022-12-14T01:31:39.198Z,5.25
2022-12-14T01:34:09.298Z,5.93
2022-12-14T01:36:39.020Z,5.78
2022-12-14T01:39:10.625Z,5.55
2022-12-14T01:41:40.777Z,4.38
2022-12-14T01:44:42.104Z,6.03
2022-12-14T01:47:19.283Z,5.22
2022-12-14T01:49:53.643Z,5.85
2022-12-14T01:52:27.312Z,4.40
2022-12-14T01:55:00.442Z,4.75
2022-12-14T01:57:32.534Z,5.90
2022-12-14T02:00:06.895Z,5.15
2022-12-14T02:02:39.466Z,5.28
2022-12-14T02:05:12.964Z,5.20
2022-12-14T02:07:43.803Z,4.28
2022-12-14T02:10:18.149Z,5.45
2022-12-14T02:15:18.148Z,6.03
2022-12-14T02:20:18.140Z,4.78
2022-12-14T02:23:18.138Z,3.97
2022-12-14T02:26:38.126Z,4.90
2022-12-14T02:29:38.758Z,3.95
2022-12-14T02:32:24.054Z,2.85
2022-12-14T02:34:59.789Z,2.85
2022-12-14T02:37:40.013Z,4.38
2022-12-14T02:40:34.414Z,3.67
2022-12-14T02:43:13.067Z,4.20
2022-12-14T02:45:48.013Z,3.45
2022-12-14T02:48:22.809Z,3.78
2022-12-14T02:51:00.720Z,3.85
2022-12-14T02:53:36.118Z,4.07
2022-12-14T02:56:10.167Z,4.55
2022-12-14T02:58:41.482Z,5.65
2022-12-14T03:01:15.485Z,4.40
2022-12-14T03:03:44.303Z,3.58
2022-12-14T03:06:15.870Z,4.68
2022-12-14T03:08:47.513Z,5.28
2022-12-14T03:11:20.624Z,5.78
2022-12-14T03:13:57.274Z,5.75
2022-12-14T03:16:31.970Z,5.45
2022-12-14T03:19:05.131Z,4.85
2022-12-14T03:21:37.999Z,5.00
2022-12-14T03:24:11.211Z,5.15
2022-12-14T03:26:51.073Z,5.78
2022-12-14T03:29:23.757Z,4.55
2022-12-14T03:31:57.284Z,4.57
2022-12-14T03:34:30.776Z,4.72
2022-12-14T03:37:07.613Z,5.22
2022-12-14T03:39:37.315Z,4.50
2022-12-14T03:42:12.379Z,4.50
2022-12-14T03:44:49.531Z,5.03
2022-12-14T03:47:33.889Z,5.55
2022-12-14T03:50:08.131Z,3.97
2022-12-14T03:52:41.208Z,4.93
2022-12-14T03:55:21.799Z,5.00
2022-12-14T03:58:10.906Z,3.67
2022-12-14T04:00:46.361Z,4.10
2022-12-14T04:03:25.602Z,4.37
2022-12-14T04:08:33.995Z,5.03
2022-12-14T04:11:22.035Z,4.77
2022-12-14T04:14:17.711Z,4.47
2022-12-14T04:17:06.841Z,4.63
2022-12-14T04:19:43.509Z,4.17
2022-12-14T04:22:16.730Z,5.67
2022-12-14T04:25:07.961Z,6.37
2022-12-14T04:27:41.327Z,5.17
2022-12-14T04:30:11.362Z,6.20
2022-12-14T04:32:43.971Z,5.57
2022-12-14T04:35:19.342Z,5.63
2022-12-14T04:37:53.344Z,6.73
2022-12-14T04:40:25.521Z,4.83
2022-12-14T04:42:57.152Z,4.73
2022-12-14T04:45:29.619Z,6.37
2022-12-14T04:48:05.746Z,5.23
2022-12-14T04:50:40.802Z,5.47
2022-12-14T04:53:13.357Z,6.10
2022-12-14T04:55:48.924Z,6.83
2022-12-14T04:58:23.019Z,6.80
2022-12-14T05:01:09.354Z,7.03
2022-12-14T05:03:45.843Z,6.67
2022-12-14T05:06:22.890Z,7.37
2022-12-14T05:09:17.863Z,6.30
2022-12-14T05:11:54.400Z,7.67
2022-12-14T05:14:29.756Z,8.13
2022-12-14T05:17:02.300Z,7.97
2022-12-14T05:19:33.444Z,7.20
2022-12-14T05:22:08.176Z,7.97
2022-12-14T05:24:36.949Z,6.73
2022-12-14T05:27:05.751Z,7.95
2022-12-14T05:29:33.977Z,7.85
2022-12-14T05:32:03.176Z,6.90
2022-12-14T05:34:32.111Z,6.90
2022-12-14T05:39:30.153Z,7.17
2022-12-14T05:41:58.712Z,8.63
2022-12-14T05:44:26.927Z,7.37
2022-12-14T05:46:55.967Z,8.30
2022-12-14T05:49:25.388Z,8.25
2022-12-14T05:51:53.958Z,7.30
2022-12-14T05:54:22.334Z,7.83
2022-12-14T05:56:52.556Z,7.18
2022-12-14T05:59:20.835Z,8.27
2022-12-14T06:01:51.117Z,7.63
2022-12-14T06:04:20.610Z,7.60
2022-12-14T06:06:50.257Z,8.13
2022-12-14T06:11:48.056Z,7.15
2022-12-14T06:16:47.803Z,7.40
2022-12-14T06:19:16.667Z,9.03
2022-12-14T06:24:14.399Z,7.30
2022-12-14T06:26:43.020Z,8.27
2022-12-14T06:29:16.044Z,8.25
2022-12-14T06:31:49.080Z,8.50
2022-12-14T06:34:18.484Z,7.70
2022-12-14T06:39:18.061Z,8.93
2022-12-14T06:41:50.891Z,6.97
2022-12-14T06:44:19.268Z,7.97
2022-12-14T06:46:49.484Z,5.63
2022-12-14T06:49:18.428Z,7.77
2022-12-14T06:54:17.148Z,5.97
2022-12-14T06:56:47.794Z,5.90
2022-12-14T06:59:17.955Z,6.77
2022-12-14T07:01:49.834Z,8.07
2022-12-14T07:04:21.407Z,9.37
2022-12-14T07:06:50.438Z,8.23
2022-12-14T07:09:18.724Z,10.30
2022-12-14T07:11:47.235Z,11.30
2022-12-14T07:14:17.923Z,12.03
2022-12-14T07:16:48.608Z,13.33
2022-12-14T07:19:19.519Z,11.00
2022-12-14T07:21:48.181Z,13.13
2022-12-14T07:24:17.568Z,12.63
2022-12-14T07:26:46.095Z,12.73
2022-12-14T07:29:15.145Z,11.63
2022-12-14T07:31:43.925Z,14.10
2022-12-14T07:34:19.546Z,11.63
2022-12-14T07:36:51.160Z,11.57
2022-12-14T07:39:19.556Z,9.93
2022-12-14T07:41:50.583Z,10.77
2022-12-14T07:44:18.800Z,9.23
2022-12-14T07:46:48.247Z,11.65
2022-12-14T07:51:46.796Z,10.38
2022-12-14T07:54:15.337Z,14.00
2022-12-14T07:56:44.770Z,13.70
2022-12-14T08:01:44.017Z,14.93
2022-12-14T08:06:42.725Z,14.10
2022-12-14T08:09:12.784Z,14.63
2022-12-14T08:11:41.723Z,14.70
2022-12-14T08:14:17.080Z,15.68
2022-12-14T08:16:46.427Z,15.83
2022-12-14T08:19:15.147Z,15.35
2022-12-14T08:24:14.464Z,19.40
2022-12-14T08:26:43.142Z,17.00
2022-12-14T08:29:17.491Z,17.53
2022-12-14T08:31:46.485Z,15.57
2022-12-14T08:34:15.898Z,16.17
2022-12-14T08:36:44.395Z,12.83
2022-12-14T08:39:14.524Z,12.13
2022-12-14T08:41:43.346Z,12.50
2022-12-14T08:44:13.197Z,12.60
2022-12-14T08:46:42.488Z,11.93
2022-12-14T08:49:12.717Z,14.80
2022-12-14T08:51:42.022Z,14.47
2022-12-14T08:54:10.288Z,12.95
2022-12-14T08:56:40.246Z,12.88
2022-12-14T08:59:08.692Z,12.67
2022-12-14T09:01:37.381Z,12.10
2022-12-14T09:04:07.903Z,11.25
2022-12-14T09:06:38.801Z,12.10
2022-12-14T09:09:15.728Z,12.27
2022-12-14T09:11:49.803Z,12.20
2022-12-14T09:14:18.045Z,12.43
2022-12-14T09:16:46.603Z,13.52
2022-12-14T09:19:14.879Z,13.97
2022-12-14T09:21:43.574Z,9.65
2022-12-14T09:24:12.053Z,11.63
2022-12-14T09:26:40.556Z,13.18
2022-12-14T09:29:15.449Z,11.80
2022-12-14T09:31:45.570Z,12.82
2022-12-14T09:34:14.079Z,14.60
2022-12-14T09:36:43.278Z,15.75
2022-12-14T09:39:14.879Z,14.07
2022-12-14T09:42:10.307Z,14.27
2022-12-14T09:44:53.327Z,11.65
2022-12-14T09:47:30.588Z,14.18
2022-12-14T09:50:03.329Z,16.58
2022-12-14T09:52:38.268Z,12.77
2022-12-14T09:55:20.048Z,9.27
2022-12-14T09:57:51.190Z,12.50
2022-12-14T10:00:23.562Z,8.65
2022-12-14T10:03:10.692Z,13.13
2022-12-14T10:05:56.079Z,8.45
2022-12-14T10:08:30.955Z,11.88
2022-12-14T10:11:08.053Z,10.63
2022-12-14T10:13:50.979Z,13.30
2022-12-14T10:16:30.506Z,9.73
2022-12-14T10:19:17.335Z,11.90
2022-12-14T10:21:52.458Z,14.60
2022-12-14T10:24:25.381Z,13.77
2022-12-14T10:26:55.090Z,14.23
2022-12-14T10:29:35.939Z,14.25
2022-12-14T10:32:20.415Z,16.48
2022-12-14T10:34:49.228Z,13.45
2022-12-14T10:37:26.810Z,14.82
2022-12-14T10:40:11.328Z,13.35
2022-12-14T10:42:51.640Z,13.55
2022-12-14T10:48:35.384Z,12.18
2022-12-14T10:51:09.277Z,10.27
2022-12-14T10:53:42.461Z,13.80
2022-12-14T10:56:18.278Z,13.32
2022-12-14T10:59:06.616Z,14.45
2022-12-14T11:01:35.412Z,15.20
2022-12-14T11:04:07.212Z,13.15
2022-12-14T11:06:36.333Z,7.97
2022-12-14T11:09:21.693Z,12.43
2022-12-14T11:11:50.719Z,11.85
2022-12-14T11:14:23.543Z,13.43
2022-12-14T11:16:52.742Z,14.02
2022-12-14T11:19:24.665Z,15.25
2022-12-14T11:22:08.971Z,14.27
2022-12-14T11:24:45.141Z,10.18
2022-12-14T11:27:18.010Z,13.27
2022-12-14T11:29:49.365Z,12.70
2022-12-14T11:32:25.460Z,13.00
2022-12-14T11:34:58.523Z,11.50
2022-12-14T11:37:28.826Z,11.48
2022-12-14T11:40:00.425Z,13.32
2022-12-14T11:42:29.513Z,13.27
2022-12-14T11:45:29.858Z,10.45
2022-12-14T11:48:24.194Z,11.93
2022-12-14T11:50:56.296Z,13.80
2022-12-14T11:53:25.170Z,9.10
2022-12-14T11:55:58.149Z,12.50
2022-12-14T11:58:32.466Z,11.55
2022-12-14T12:01:06.062Z,11.85
2022-12-14T12:03:38.192Z,9.15
2022-12-14T12:06:11.125Z,9.13
2022-12-14T12:08:41.801Z,10.77
2022-12-14T12:11:17.828Z,11.18
2022-12-14T12:13:48.621Z,8.23
2022-12-14T12:16:19.851Z,10.80
2022-12-14T12:18:52.302Z,10.40
2022-12-14T12:21:26.280Z,9.75
2022-12-14T12:24:05.141Z,10.65
2022-12-14T12:26:37.772Z,11.18
2022-12-14T12:29:19.258Z,10.30
2022-12-14T12:31:55.803Z,11.65
2022-12-14T12:34:30.059Z,12.25
2022-12-14T12:37:25.746Z,12.57
2022-12-14T12:39:59.841Z,10.77
2022-12-14T12:42:35.889Z,11.25
2022-12-14T12:45:13.825Z,13.45
2022-12-14T12:47:48.076Z,9.85
2022-12-14T12:50:19.136Z,12.18
2022-12-14T12:53:02.780Z,11.63
2022-12-14T12:55:36.743Z,12.32
2022-12-14T12:58:09.997Z,11.95
2022-12-14T13:00:41.876Z,12.15
2022-12-14T13:03:19.722Z,11.07
2022-12-14T13:05:49.294Z,10.20
2022-12-14T13:11:29.281Z,11.20
2022-12-14T13:14:01.212Z,11.18
2022-12-14T13:16:34.337Z,6.82
2022-12-14T13:19:48.245Z,11.63
2022-12-14T13:22:05.168Z,12.50
2022-12-14T13:24:34.795Z,9.27
2022-12-14T13:27:27.527Z,13.23
2022-12-14T13:30:17.599Z,11.30
2022-12-14T13:32:58.242Z,12.95
2022-12-14T13:35:42.809Z,12.57
2022-12-14T13:38:34.221Z,11.30
2022-12-14T13:41:25.489Z,13.05
2022-12-14T13:44:33.554Z,14.23
2022-12-14T13:47:05.769Z,13.00
2022-12-14T13:49:36.210Z,13.70
2022-12-14T13:52:04.725Z,14.68
2022-12-14T13:54:35.986Z,13.30
2022-12-14T13:57:08.753Z,13.43
2022-12-14T13:59:42.831Z,14.75
2022-12-14T14:02:40.304Z,11.70
2022-12-14T14:05:46.503Z,12.95
2022-12-14T14:08:42.011Z,12.85
2022-12-14T14:11:44.377Z,10.45
2022-12-14T14:14:21.505Z,13.52
2022-12-14T14:16:57.675Z,11.82
2022-12-14T14:19:29.851Z,12.13
2022-12-14T14:22:22.893Z,11.82
2022-12-14T14:24:58.443Z,11.48
2022-12-14T14:27:32.876Z,11.38
2022-12-14T14:30:01.971Z,13.23
2022-12-14T14:35:27.184Z,9.05
2022-12-14T14:37:59.528Z,13.38
2022-12-14T14:41:06.550Z,12.70
2022-12-14T14:43:29.131Z,14.03
2022-12-14T14:46:01.834Z,12.65
2022-12-14T14:48:36.581Z,10.68
2022-12-14T14:51:19.221Z,12.90
2022-12-14T14:53:50.270Z,14.70
2022-12-14T14:56:40.288Z,11.88
2022-12-14T14:59:33.129Z,14.23
2022-12-14T15:02:05.401Z,14.40
2022-12-14T15:04:45.303Z,12.73
2022-12-14T15:07:18.825Z,12.98
2022-12-14T15:09:53.028Z,11.90
2022-12-14T15:12:31.409Z,7.68
2022-12-14T15:15:03.334Z,11.30
2022-12-14T15:17:31.930Z,9.15
2022-12-14T15:22:42.468Z,8.68
2022-12-14T15:25:16.445Z,8.18
2022-12-14T15:27:45.177Z,7.88
2022-12-14T15:30:23.458Z,11.88
2022-12-14T15:32:57.794Z,11.90
2022-12-14T15:35:33.643Z,13.07
2022-12-14T15:38:09.634Z,14.05
2022-12-14T15:40:38.613Z,13.50
2022-12-14T15:43:18.726Z,14.40
2022-12-14T15:45:50.822Z,14.18
2022-12-14T15:48:26.120Z,13.63
2022-12-14T15:50:59.034Z,15.35
2022-12-14T15:53:33.026Z,14.13
2022-12-14T15:56:11.549Z,13.50
2022-12-14T15:58:45.333Z,15.02
2022-12-14T16:01:20.898Z,15.68
2022-12-14T16:03:52.099Z,14.93
2022-12-14T16:06:26.023Z,16.02
2022-12-14T16:09:01.965Z,15.35
2022-12-14T16:11:37.498Z,15.35
2022-12-14T16:14:18.949Z,15.57
2022-12-14T16:16:48.303Z,14.32
2022-12-14T16:22:21.192Z,13.40
2022-12-14T16:25:18.137Z,12.50
2022-12-14T16:27:50.035Z,13.88
2022-12-14T16:30:23.202Z,13.77
2022-12-14T16:32:54.403Z,15.07
2022-12-14T16:35:27.289Z,14.80
2022-12-14T16:38:07.628Z,16.50
2022-12-14T16:40:38.661Z,14.77
2022-12-14T16:43:08.938Z,16.53
2022-12-14T16:46:15.127Z,16.50
2022-12-14T16:48:50.195Z,16.97
2022-12-14T16:51:58.338Z,18.00
2022-12-14T16:56:59.179Z,16.27
2022-12-14T16:59:37.444Z,18.30
2022-12-14T17:02:09.327Z,20.27
2022-12-14T17:04:40.757Z,18.30
2022-12-14T17:07:17.468Z,20.17
2022-12-14T17:09:47.366Z,20.13
2022-12-14T17:12:19.485Z,20.37
2022-12-14T17:14:50.469Z,19.80
2022-12-14T17:17:22.484Z,20.50
2022-12-14T17:19:52.584Z,20.53
2022-12-14T17:22:29.384Z,21.77
2022-12-14T17:25:02.726Z,19.17
2022-12-14T17:27:31.470Z,20.10
2022-12-14T17:30:02.647Z,20.97
2022-12-14T17:32:57.913Z,22.17
2022-12-14T17:35:34.461Z,24.20
2022-12-14T17:38:02.755Z,22.27
2022-12-14T17:40:32.726Z,22.02
2022-12-14T17:43:02.311Z,22.43
2022-12-14T17:45:32.098Z,20.73
2022-12-14T17:48:08.240Z,21.97
2022-12-14T17:50:37.833Z,23.50
2022-12-14T17:53:07.790Z,22.92
2022-12-14T17:55:40.099Z,21.87
2022-12-14T17:58:09.142Z,23.80
2022-12-14T18:00:55.922Z,23.27
2022-12-14T18:03:26.400Z,23.60
2022-12-14T18:05:55.098Z,24.23
2022-12-14T18:08:24.788Z,24.95
2022-12-14T18:10:57.902Z,24.73
2022-12-14T18:13:27.496Z,17.33
2022-12-14T18:15:56.744Z,20.60
2022-12-14T18:18:28.801Z,23.55
2022-12-14T18:21:00.330Z,24.00
2022-12-14T18:23:30.688Z,23.53
2022-12-14T18:26:03.542Z,27.13
2022-12-14T18:28:34.267Z,30.37
2022-12-14T18:31:09.808Z,33.60
2022-12-14T18:33:41.604Z,43.17
2022-12-14T18:36:13.297Z,42.80
2022-12-14T18:38:42.995Z,48.73
2022-12-14T18:41:21.698Z,36.43
2022-12-14T18:43:50.492Z,36.40
2022-12-14T18:48:49.574Z,32.92
2022-12-14T18:51:23.915Z,34.30
2022-12-14T18:53:52.760Z,32.97
2022-12-14T18:58:52.682Z,31.83
2022-12-14T19:01:24.216Z,32.20
2022-12-14T19:03:53.358Z,32.30
2022-12-14T19:09:12.888Z,28.10
2022-12-14T19:11:43.801Z,27.40
2022-12-14T19:14:13.669Z,26.17
2022-12-14T19:16:42.331Z,23.03
2022-12-14T19:19:13.929Z,31.30
2022-12-14T19:21:43.971Z,31.20
2022-12-14T19:24:16.319Z,27.90
2022-12-14T19:26:49.532Z,23.17
2022-12-14T19:29:18.073Z,25.80
2022-12-14T19:31:53.115Z,25.65
2022-12-14T19:34:24.027Z,28.67
2022-12-14T19:36:53.051Z,28.40
2022-12-14T19:39:24.557Z,28.63
2022-12-14T19:41:55.917Z,30.27
2022-12-14T19:44:26.394Z,27.33
2022-12-14T19:46:54.975Z,31.37
2022-12-14T19:49:23.528Z,35.28
2022-12-14T19:51:52.679Z,27.85
2022-12-14T19:54:22.121Z,26.30
2022-12-14T19:56:53.208Z,27.08
2022-12-14T19:59:24.051Z,28.93
2022-12-14T20:01:53.972Z,34.27
2022-12-14T20:04:23.836Z,30.03
2022-12-14T20:06:55.109Z,28.53
2022-12-14T20:09:25.257Z,30.80
2022-12-14T20:11:53.765Z,30.53
2022-12-14T20:14:23.662Z,27.17
2022-12-14T20:16:52.707Z,29.97
2022-12-14T20:19:21.174Z,33.25
2022-12-14T20:21:49.795Z,31.17
2022-12-14T20:24:18.550Z,31.95
2022-12-14T20:26:47.450Z,30.27
2022-12-14T20:29:18.028Z,28.63
2022-12-14T20:31:50.427Z,28.60
2022-12-14T20:34:19.046Z,31.00
2022-12-14T20:36:47.594Z,29.83
2022-12-14T20:39:15.790Z,29.88
2022-12-14T20:41:44.583Z,27.95
2022-12-14T20:44:15.960Z,27.70
2022-12-14T20:46:51.923Z,26.93
2022-12-14T20:49:23.234Z,32.17
2022-12-14T20:51:52.065Z,28.07
2022-12-14T20:54:22.307Z,27.95
2022-12-14T20:56:50.896Z,27.23
2022-12-14T20:59:19.590Z,25.58
2022-12-14T21:01:55.507Z,30.20
2022-12-14T21:04:25.769Z,24.37
2022-12-14T21:06:54.320Z,26.60
2022-12-14T21:09:22.540Z,21.02
2022-12-14T21:12:09.264Z,28.10
2022-12-14T21:14:39.223Z,27.37
2022-12-14T21:17:10.114Z,20.03
2022-12-14T21:19:38.410Z,28.87
2022-12-14T21:22:08.720Z,25.35
2022-12-14T21:25:01.758Z,35.83
2022-12-14T21:27:30.221Z,32.90
2022-12-14T21:29:58.426Z,32.93
2022-12-14T21:32:28.970Z,32.30
2022-12-14T21:34:57.210Z,31.33
2022-12-14T21:37:25.722Z,32.40
2022-12-14T21:39:55.586Z,31.67
2022-12-14T21:42:24.803Z,31.03
2022-12-14T21:44:54.436Z,29.90
2022-12-14T21:47:24.574Z,27.43
2022-12-14T21:49:54.872Z,32.00
2022-12-14T21:52:26.010Z,31.70
2022-12-14T21:54:54.506Z,30.83
2022-12-14T21:57:42.155Z,30.83
2022-12-14T22:00:13.489Z,31.73
2022-12-14T22:02:42.775Z,31.97
2022-12-14T22:05:13.211Z,32.23
2022-12-14T22:07:41.962Z,31.17
2022-12-14T22:10:10.267Z,32.42
2022-12-14T22:12:38.825Z,28.98
2022-12-14T22:15:08.813Z,32.50
2022-12-14T22:17:37.343Z,29.87
2022-12-14T22:20:06.605Z,30.33
2022-12-14T22:22:36.792Z,30.33
2022-12-14T22:25:05.507Z,29.80
2022-12-14T22:27:34.135Z,28.45
2022-12-14T22:30:04.848Z,29.80
2022-12-14T22:32:33.926Z,31.13
2022-12-14T22:35:02.941Z,30.45
2022-12-14T22:37:31.520Z,31.87
2022-12-14T22:40:01.159Z,29.60
2022-12-14T22:42:29.919Z,30.73
2022-12-14T22:44:58.182Z,33.72
2022-12-14T22:47:28.991Z,32.85
2022-12-14T22:49:57.214Z,33.23
2022-12-14T22:52:25.684Z,30.92
2022-12-14T22:54:54.589Z,32.25
2022-12-14T22:57:24.839Z,28.13
2022-12-14T22:59:56.848Z,29.30
2022-12-14T23:02:26.042Z,32.37
2022-12-14T23:04:54.576Z,30.13
2022-12-14T23:07:23.148Z,28.83
2022-12-14T23:10:09.160Z,29.58
2022-12-14T23:12:56.526Z,30.40
2022-12-14T23:15:42.461Z,34.10
2022-12-14T23:18:28.638Z,36.10
2022-12-14T23:21:14.965Z,33.43
2022-12-14T23:24:02.890Z,32.63
2022-12-14T23:26:48.985Z,37.03
2022-12-14T23:29:36.229Z,34.00
2022-12-14T23:32:22.130Z,32.00
2022-12-14T23:35:08.150Z,30.53
2022-12-14T23:37:54.113Z,31.60
2022-12-14T23:40:40.012Z,32.07
2022-12-14T23:43:34.534Z,28.57
2022-12-14T23:46:23.881Z,32.83
2022-12-14T23:49:15.457Z,32.40
2022-12-14T23:52:02.216Z,34.17
2022-12-14T23:54:47.979Z,30.40
2022-12-14T23:57:34.150Z,36.43
